Time;durP1;ratioP1;P1;durP2;ratioP2;P2;SDS_P1;SDS_P2;PMS_P1;PMS_P2;Temp;Humidity;BMP_temperature;BMP_pressure;BME280_temperature;BME280_humidity;BME280_pressure;Samples;Min_cycle;Max_cycle;Signal;HPM_P1;HPM_P2
2021/08/27 00:00:10;;;;;;;8.38;4.10;;;;;;;17.59;100.00;92690.84;5030754;28;20053;-78
2021/08/27 00:02:38;;;;;;;7.55;4.07;;;;;;;17.47;100.00;92676.34;5030633;28;20053;-78
2021/08/27 00:05:07;;;;;;;8.48;4.15;;;;;;;17.42;100.00;92673.75;5030273;28;20053;-77
2021/08/27 00:07:34;;;;;;;10.02;5.30;;;;;;;17.34;100.00;92687.28;5030739;28;20136;-78
2021/08/27 00:10:00;;;;;;;7.32;4.63;;;;;;;17.09;100.00;92670.75;5030327;28;20041;-78
2021/08/27 00:12:27;;;;;;;10.52;5.13;;;;;;;17.14;100.00;92688.91;5030162;28;20046;-77
2021/08/27 00:14:54;;;;;;;12.82;5.20;;;;;;;17.06;100.00;92694.59;5030569;28;20041;-78
2021/08/27 00:17:29;;;;;;;10.70;4.97;;;;;;;16.79;100.00;92688.66;5030088;28;20049;-77
2021/08/27 00:19:58;;;;;;;9.98;5.57;;;;;;;16.61;100.00;92686.59;5030395;28;20053;-77
2021/08/27 00:22:24;;;;;;;11.40;5.10;;;;;;;16.71;100.00;92694.34;5030146;28;20045;-77
2021/08/27 00:24:51;;;;;;;10.40;5.63;;;;;;;16.78;100.00;92702.66;5030086;28;20050;-77
2021/08/27 00:27:18;;;;;;;9.68;5.38;;;;;;;16.99;100.00;92720.78;5030326;28;20453;-78
2021/08/27 00:29:45;;;;;;;15.35;5.72;;;;;;;17.05;100.00;92711.22;5029762;28;20053;-78
2021/08/27 00:32:12;;;;;;;10.98;5.90;;;;;;;17.12;100.00;92713.56;5030184;28;20099;-77
2021/08/27 00:34:39;;;;;;;11.23;6.28;;;;;;;16.99;100.00;92686.28;5029840;28;20045;-78
2021/08/27 00:37:07;;;;;;;10.88;5.78;;;;;;;17.22;100.00;92696.13;5030025;28;20047;-77
2021/08/27 00:39:34;;;;;;;11.13;6.72;;;;;;;17.25;100.00;92697.44;5030155;28;20046;-77
2021/08/27 00:42:01;;;;;;;11.00;5.53;;;;;;;17.17;100.00;92682.41;5029685;28;20053;-77
2021/08/27 00:44:28;;;;;;;9.40;5.38;;;;;;;17.17;100.00;92705.75;5029759;28;20045;-76
2021/08/27 00:46:55;;;;;;;8.38;5.55;;;;;;;17.26;100.00;92708.59;5029933;28;20053;-78
2021/08/27 00:49:22;;;;;;;13.07;5.10;;;;;;;17.27;100.00;92703.13;5029524;28;20828;-78
2021/08/27 00:51:50;;;;;;;9.13;4.57;;;;;;;17.21;100.00;92704.97;5029607;28;20403;-78
2021/08/27 00:54:19;;;;;;;8.15;4.82;;;;;;;17.29;100.00;92706.25;5029875;28;20053;-77
2021/08/27 00:56:46;;;;;;;6.90;3.45;;;;;;;17.29;100.00;92695.06;5029610;28;20045;-77
2021/08/27 00:59:13;;;;;;;8.60;4.13;;;;;;;17.17;100.00;92690.19;5029762;28;20502;-77
2021/08/27 01:01:40;;;;;;;6.57;3.97;;;;;;;17.07;100.00;92691.75;5028860;28;20096;-77
2021/08/27 01:04:07;;;;;;;10.00;4.60;;;;;;;16.85;100.00;92679.03;5029659;28;20591;-77
2021/08/27 01:06:38;;;;;;;7.07;4.32;;;;;;;16.85;100.00;92667.91;5029609;28;20049;-77
2021/08/27 01:09:07;;;;;;;9.73;5.32;;;;;;;17.02;100.00;92693.53;5029425;28;20111;-77
2021/08/27 01:11:42;;;;;;;8.57;4.95;;;;;;;16.82;100.00;92682.94;5029399;28;20060;-76
2021/08/27 01:14:16;;;;;;;16.08;5.80;;;;;;;16.81;100.00;92688.41;5029632;28;20045;-77
2021/08/27 01:16:53;;;;;;;9.85;4.68;;;;;;;16.64;100.00;92686.84;5029306;28;20056;-76
2021/08/27 01:19:43;;;;;;;10.07;5.10;;;;;;;16.49;100.00;92689.44;5029449;28;20046;-76
2021/08/27 01:22:28;;;;;;;11.80;5.57;;;;;;;16.51;100.00;92701.09;5028970;28;20061;-77
2021/08/27 01:24:57;;;;;;;9.75;5.40;;;;;;;16.61;100.00;92702.16;5029381;28;20136;-77
2021/08/27 01:27:26;;;;;;;11.68;6.53;;;;;;;16.75;100.00;92703.16;5029063;28;20053;-76
2021/08/27 01:42:02;;;;;;;12.57;5.60;;;;;;;17.76;100.00;92687.91;5081134;27;1349416;-78
2021/08/27 01:44:29;;;;;;;11.40;5.85;;;;;;;17.63;100.00;92678.84;5107110;28;20039;-79
2021/08/27 01:46:59;;;;;;;14.63;6.70;;;;;;;17.46;100.00;92682.56;5106946;28;20048;-80
2021/08/27 01:49:28;;;;;;;11.18;6.60;;;;;;;17.42;100.00;92686.75;5106933;28;20442;-79
2021/08/27 01:51:57;;;;;;;10.85;6.45;;;;;;;17.41;100.00;92695.56;5106939;28;20130;-78
2021/08/27 01:54:25;;;;;;;10.50;5.93;;;;;;;17.31;100.00;92685.22;5106918;28;20059;-77
2021/08/27 01:56:53;;;;;;;8.80;5.25;;;;;;;17.31;100.00;92682.63;5106624;28;20040;-76
2021/08/27 01:59:23;;;;;;;8.32;5.82;;;;;;;17.30;100.00;92692.22;5106822;28;20458;-78
2021/08/27 02:01:50;;;;;;;7.88;5.35;;;;;;;17.32;100.00;92692.72;5106473;28;20044;-78
2021/08/27 02:04:18;;;;;;;8.93;5.18;;;;;;;17.33;100.00;92701.28;5106253;28;20051;-78
2021/08/27 02:06:45;;;;;;;8.77;5.80;;;;;;;17.29;100.00;92700.25;5106344;28;20044;-78
2021/08/27 02:09:14;;;;;;;12.65;5.55;;;;;;;17.24;100.00;92682.91;5107172;28;20048;-79
2021/08/27 02:11:42;;;;;;;9.63;5.75;;;;;;;17.31;100.00;92688.56;5106744;28;20130;-78
2021/08/27 02:14:09;;;;;;;8.10;5.78;;;;;;;17.10;100.00;92677.47;5106248;28;20050;-77
2021/08/27 02:16:38;;;;;;;8.15;6.15;;;;;;;16.72;100.00;92672.59;5105967;28;20048;-77
2021/08/27 02:19:05;;;;;;;8.90;6.22;;;;;;;16.70;100.00;92669.47;5106532;28;20055;-77
2021/08/27 02:21:35;;;;;;;6.53;5.22;;;;;;;16.63;100.00;92648.22;5106441;28;20048;-77
2021/08/27 02:24:08;;;;;;;8.00;5.32;;;;;;;16.89;100.00;92671.53;5106356;28;20044;-77
2021/08/27 02:26:36;;;;;;;6.50;5.22;;;;;;;16.99;100.00;92675.91;5106259;28;20054;-77
2021/08/27 02:29:04;;;;;;;10.10;5.72;;;;;;;17.06;100.00;92673.84;5106049;28;20052;-77
2021/08/27 02:31:32;;;;;;;8.43;5.10;;;;;;;17.02;100.00;92660.59;5086496;28;20599;-77
2021/08/27 02:34:02;;;;;;;8.05;5.82;;;;;;;17.18;100.00;92689.91;5086210;28;20056;-77
2021/08/27 02:36:29;;;;;;;6.65;5.75;;;;;;;17.19;100.00;92694.06;5086037;28;20074;-77
2021/08/27 02:38:58;;;;;;;8.77;5.82;;;;;;;17.19;100.00;92685.50;5085331;28;20043;-77
2021/08/27 02:41:25;;;;;;;10.30;5.85;;;;;;;17.32;100.00;92697.16;5080895;28;20048;-77
2021/08/27 02:43:52;;;;;;;8.95;5.55;;;;;;;17.35;100.00;92681.03;5072354;28;20117;-76
2021/08/27 02:46:19;;;;;;;8.15;4.63;;;;;;;17.36;100.00;92678.19;5071958;28;20052;-76
2021/08/27 02:48:46;;;;;;;8.13;4.82;;;;;;;17.39;100.00;92689.09;5072085;28;20048;-76
2021/08/27 02:51:16;;;;;;;6.72;5.15;;;;;;;17.40;100.00;92685.44;5071976;28;20113;-76
2021/08/27 02:53:47;;;;;;;9.05;5.43;;;;;;;17.30;100.00;92684.44;5072031;28;20041;-76
2021/08/27 02:56:22;;;;;;;6.50;5.13;;;;;;;17.34;100.00;92675.09;5071640;28;20040;-76
2021/08/27 02:58:51;;;;;;;9.10;5.05;;;;;;;17.41;100.00;92681.81;5071852;28;20049;-76
2021/08/27 03:01:24;;;;;;;6.88;5.45;;;;;;;17.43;100.00;92680.50;5071330;28;20082;-76
2021/08/27 03:04:03;;;;;;;7.45;5.53;;;;;;;17.42;100.00;92675.56;5071447;28;20049;-77
2021/08/27 03:06:37;;;;;;;8.48;5.25;;;;;;;17.41;100.00;92682.56;5071453;28;20057;-77
2021/08/27 03:09:08;;;;;;;8.80;5.18;;;;;;;17.37;100.00;92678.97;5071795;28;20059;-76
2021/08/27 03:11:40;;;;;;;9.20;5.72;;;;;;;17.36;100.00;92674.81;5071231;28;20102;-76
2021/08/27 03:14:11;;;;;;;8.20;4.85;;;;;;;17.27;100.00;92661.59;5071667;28;20056;-76
2021/08/27 03:16:40;;;;;;;8.15;6.05;;;;;;;17.42;100.00;92685.94;5071195;28;20044;-76
2021/08/27 03:19:11;;;;;;;9.60;5.47;;;;;;;17.45;100.00;92696.59;5071578;28;20056;-76
2021/08/27 03:21:43;;;;;;;8.27;5.03;;;;;;;17.49;100.00;92679.44;5071427;28;20045;-76
2021/08/27 03:24:16;;;;;;;7.68;5.10;;;;;;;17.44;100.00;92674.25;5071280;28;20531;-77
2021/08/27 03:26:44;;;;;;;8.68;5.95;;;;;;;17.47;100.00;92678.94;5071159;28;20439;-77
2021/08/27 03:29:15;;;;;;;7.25;5.35;;;;;;;17.47;100.00;92673.75;5071105;28;20052;-76
2021/08/27 03:31:42;;;;;;;8.52;5.88;;;;;;;17.49;100.00;92671.66;5071287;28;20063;-76
2021/08/27 03:34:11;;;;;;;9.77;6.13;;;;;;;17.48;100.00;92680.50;5070962;28;20481;-77
2021/08/27 03:36:41;;;;;;;10.10;6.28;;;;;;;17.52;100.00;92678.13;5071073;28;20102;-77
2021/08/27 03:39:09;;;;;;;11.68;6.97;;;;;;;17.49;100.00;92684.63;5071134;28;20044;-76
2021/08/27 03:41:40;;;;;;;10.20;5.70;;;;;;;17.38;100.00;92675.31;5070900;28;20060;-76
2021/08/27 03:44:08;;;;;;;10.27;6.65;;;;;;;17.42;100.00;92671.16;5070782;28;20056;-76
2021/08/27 03:46:37;;;;;;;9.55;6.13;;;;;;;17.39;100.00;92676.88;5070825;28;20060;-76
2021/08/27 03:49:04;;;;;;;10.32;7.20;;;;;;;17.28;100.00;92663.16;5070676;28;20105;-76
2021/08/27 03:51:31;;;;;;;13.18;6.57;;;;;;;17.11;100.00;92670.47;5070518;28;20455;-76
2021/08/27 03:54:00;;;;;;;11.38;6.60;;;;;;;17.12;100.00;92672.03;5069519;28;20493;-76
2021/08/27 04:46:11;;;;;;;19.50;11.93;;;;;;;17.58;100.00;92677.06;5082015;27;1317260;-74
2021/08/27 04:48:38;;;;;;;16.98;10.85;;;;;;;17.77;100.00;92712.81;5106702;28;20048;-75
2021/08/27 04:51:05;;;;;;;17.67;10.60;;;;;;;17.73;100.00;92707.38;5106618;28;20044;-74
2021/08/27 04:53:32;;;;;;;16.42;10.32;;;;;;;17.67;100.00;92695.47;5106586;28;20052;-74
2021/08/27 04:55:58;;;;;;;13.90;9.52;;;;;;;17.72;100.00;92702.44;5106741;28;20066;-75
2021/08/27 04:58:26;;;;;;;13.65;9.13;;;;;;;17.81;100.00;92718.28;5106770;28;20044;-75
2021/08/27 05:00:53;;;;;;;13.40;9.27;;;;;;;17.81;100.00;92713.84;5106788;28;20075;-75
2021/08/27 05:03:21;;;;;;;14.10;8.50;;;;;;;17.89;100.00;92721.09;5106295;28;20052;-76
2021/08/27 05:05:48;;;;;;;14.77;8.82;;;;;;;17.77;100.00;92698.03;5103488;28;20126;-77
2021/08/27 05:08:15;;;;;;;13.98;8.95;;;;;;;17.90;100.00;92717.47;5108931;28;20439;-76
2021/08/27 05:10:42;;;;;;;11.27;8.77;;;;;;;17.83;100.00;92703.19;5115885;28;20484;-76
2021/08/27 05:13:08;;;;;;;14.35;8.63;;;;;;;17.92;100.00;92725.00;5106391;28;20043;-76
2021/08/27 05:15:35;;;;;;;12.23;9.25;;;;;;;18.03;100.00;92730.91;5106112;28;20056;-75
2021/08/27 05:18:02;;;;;;;12.43;9.57;;;;;;;18.08;100.00;92727.53;5106211;28;20050;-76
2021/08/27 05:20:30;;;;;;;12.82;10.13;;;;;;;18.10;100.00;92702.81;5105864;28;20397;-77
2021/08/27 05:22:57;;;;;;;16.27;12.30;;;;;;;18.03;100.00;92713.50;5106025;28;20514;-76
2021/08/27 05:25:24;;;;;;;21.45;16.10;;;;;;;17.96;100.00;92709.63;5106245;28;20066;-76
2021/08/27 05:27:52;;;;;;;20.77;16.33;;;;;;;17.99;100.00;92722.09;5105846;28;20043;-76
2021/08/27 05:30:19;;;;;;;27.02;19.77;;;;;;;17.94;100.00;92696.13;5106239;28;20052;-76
2021/08/27 05:32:46;;;;;;;27.25;20.60;;;;;;;18.09;100.00;92724.66;5105837;28;20091;-76
2021/08/27 05:35:13;;;;;;;27.17;19.58;;;;;;;18.14;100.00;92718.66;5090336;28;20440;-76
2021/08/27 05:37:42;;;;;;;23.63;18.63;;;;;;;18.19;100.00;92723.81;5085517;28;20113;-77
2021/08/27 05:40:10;;;;;;;25.35;19.27;;;;;;;18.27;100.00;92723.28;5085468;28;20489;-77
2021/08/27 05:42:38;;;;;;;22.65;18.13;;;;;;;17.92;100.00;92722.41;5086194;28;20063;-77
2021/08/27 05:45:07;;;;;;;23.63;17.23;;;;;;;17.93;100.00;92705.75;5084049;28;20055;-77
2021/08/27 05:47:34;;;;;;;20.13;16.10;;;;;;;18.10;100.00;92733.25;5071703;28;20048;-78
2021/08/27 05:50:02;;;;;;;26.23;19.38;;;;;;;17.75;100.00;92727.91;5071736;28;20129;-77
2021/08/27 05:52:28;;;;;;;25.25;18.63;;;;;;;17.73;100.00;92727.41;5071915;28;20048;-77
2021/08/27 05:54:57;;;;;;;27.83;18.63;;;;;;;17.88;100.00;92726.56;5071672;28;20052;-77
2021/08/27 05:57:23;;;;;;;26.73;19.50;;;;;;;18.04;100.00;92729.84;5071844;28;20048;-77
2021/08/27 05:59:50;;;;;;;26.80;19.45;;;;;;;18.12;100.00;92737.13;5071413;28;20044;-76
2021/08/27 06:02:18;;;;;;;26.17;18.60;;;;;;;18.14;100.00;92742.81;5071904;28;20051;-76
2021/08/27 06:04:45;;;;;;;24.65;18.45;;;;;;;17.89;100.00;92743.69;5071725;28;20052;-76
2021/08/27 06:07:11;;;;;;;23.98;19.02;;;;;;;17.77;100.00;92742.19;5071543;28;20052;-76
2021/08/27 06:09:38;;;;;;;29.70;20.85;;;;;;;17.38;100.00;92742.81;5071662;28;20094;-76
2021/08/27 06:12:07;;;;;;;24.90;20.02;;;;;;;17.26;100.00;92743.09;5071277;28;20051;-76
2021/08/27 06:14:34;;;;;;;29.95;23.05;;;;;;;17.19;100.00;92716.66;5071120;28;20068;-76
2021/08/27 06:17:01;;;;;;;28.50;21.63;;;;;;;17.50;100.00;92726.97;5071549;28;20048;-76
2021/08/27 06:19:28;;;;;;;26.05;18.75;;;;;;;17.49;100.00;92720.97;5071228;28;20409;-76
2021/08/27 06:21:57;;;;;;;22.83;17.95;;;;;;;17.75;100.00;92739.09;5071145;28;20094;-76
2021/08/27 06:24:24;;;;;;;23.17;16.45;;;;;;;17.61;100.00;92735.50;5071082;28;20080;-76
2021/08/27 06:26:51;;;;;;;26.48;18.75;;;;;;;17.57;100.00;92742.25;5071029;28;20484;-76
2021/08/27 06:29:19;;;;;;;21.10;16.45;;;;;;;17.55;100.00;92742.50;5070957;28;20049;-76
2021/08/27 06:31:46;;;;;;;20.90;15.50;;;;;;;17.76;100.00;92745.84;5071227;28;20045;-76
2021/08/27 06:34:13;;;;;;;20.35;15.80;;;;;;;17.47;100.00;92714.50;5071056;28;20045;-77
2021/08/27 06:36:40;;;;;;;23.20;16.10;;;;;;;18.02;100.00;92737.91;5071225;28;20067;-77
2021/08/27 06:39:07;;;;;;;19.13;15.07;;;;;;;18.39;100.00;92733.34;5070997;28;20048;-77
2021/08/27 06:41:34;;;;;;;24.67;16.60;;;;;;;18.60;100.00;92733.19;5070767;28;20048;-77
2021/08/27 06:44:00;;;;;;;23.58;16.10;;;;;;;18.61;100.00;92739.19;5070600;28;20496;-79
2021/08/27 06:46:30;;;;;;;21.27;14.90;;;;;;;18.41;100.00;92738.25;5070503;28;20044;-81
2021/08/27 06:48:57;;;;;;;23.27;16.67;;;;;;;18.45;100.00;92715.09;5071046;28;20049;-80
2021/08/27 06:51:24;;;;;;;26.38;17.58;;;;;;;18.80;100.00;92736.69;5070863;28;20408;-80
2021/08/27 06:53:53;;;;;;;26.42;18.27;;;;;;;19.00;100.00;92748.75;5070133;28;20048;-80
2021/08/27 06:56:20;;;;;;;31.98;19.00;;;;;;;19.45;100.00;92740.06;5070580;28;20504;-79
2021/08/27 06:58:47;;;;;;;27.98;17.92;;;;;;;19.85;100.00;92732.84;5069465;28;20512;-79
2021/08/27 07:01:14;;;;;;;25.65;17.92;;;;;;;20.31;100.00;92743.00;5070740;28;20041;-78
2021/08/27 07:03:42;;;;;;;25.45;17.08;;;;;;;20.74;100.00;92747.34;5070382;28;20048;-78
2021/08/27 07:06:09;;;;;;;29.00;18.00;;;;;;;21.10;100.00;92754.63;5070184;28;20045;-79
2021/08/27 07:08:35;;;;;;;32.05;17.50;;;;;;;21.41;100.00;92751.50;5070340;28;20049;-79
2021/08/27 07:11:02;;;;;;;29.58;17.50;;;;;;;21.71;100.00;92753.88;5067792;28;20048;-79
2021/08/27 07:13:29;;;;;;;29.63;16.63;;;;;;;21.98;100.00;92739.25;5068196;28;21048;-78
2021/08/27 07:15:56;;;;;;;24.80;15.98;;;;;;;22.31;100.00;92757.38;5068891;28;20064;-78
2021/08/27 07:18:23;;;;;;;29.67;16.42;;;;;;;22.61;100.00;92749.19;5070117;28;20565;-78
2021/08/27 07:20:52;;;;;;;22.58;15.63;;;;;;;22.89;100.00;92767.41;5069801;28;20127;-79
2021/08/27 07:23:19;;;;;;;24.58;16.17;;;;;;;23.27;100.00;92767.03;5069921;28;20040;-78
2021/08/27 07:25:46;;;;;;;23.52;15.07;;;;;;;23.64;100.00;92771.41;5069946;28;20045;-79
2021/08/27 07:28:12;;;;;;;28.60;17.25;;;;;;;23.88;100.00;92768.38;5070226;28;20067;-78
2021/08/27 07:30:40;;;;;;;23.55;14.50;;;;;;;24.22;98.62;92774.06;5070176;28;20053;-79
2021/08/27 07:33:07;;;;;;;22.08;14.43;;;;;;;24.11;97.68;92740.25;5069834;28;20052;-79
2021/08/27 07:35:34;;;;;;;24.65;14.93;;;;;;;24.56;96.12;92772.56;5069910;28;20057;-79
2021/08/27 07:38:02;;;;;;;23.95;14.98;;;;;;;24.75;92.87;92772.25;5069740;28;20044;-78
2021/08/27 07:40:29;;;;;;;25.10;15.38;;;;;;;24.84;94.18;92771.53;5069796;28;20045;-78
2021/08/27 07:42:56;;;;;;;24.52;15.32;;;;;;;25.00;93.96;92769.19;5069954;28;20074;-78
2021/08/27 07:45:24;;;;;;;22.63;13.85;;;;;;;24.95;91.42;92770.88;5069708;28;20408;-78
2021/08/27 07:47:51;;;;;;;19.95;14.38;;;;;;;24.78;92.38;92761.16;5069641;28;20455;-79
2021/08/27 07:50:18;;;;;;;19.52;13.68;;;;;;;24.97;92.23;92773.22;5069408;28;20496;-79
2021/08/27 07:52:45;;;;;;;24.52;14.40;;;;;;;24.79;93.19;92773.19;5069749;28;20048;-79
2021/08/27 07:55:14;;;;;;;26.55;15.00;;;;;;;24.80;94.46;92769.47;5070171;28;20084;-79
2021/08/27 07:57:42;;;;;;;24.40;14.57;;;;;;;24.44;94.64;92760.03;5070256;28;20052;-78
2021/08/27 08:00:10;;;;;;;27.83;15.70;;;;;;;24.19;96.04;92764.19;5069079;28;20049;-79
2021/08/27 08:02:37;;;;;;;29.98;16.50;;;;;;;24.08;98.04;92747.97;5069243;28;20048;-79
2021/08/27 08:05:04;;;;;;;27.27;16.17;;;;;;;23.92;98.47;92768.59;5069214;28;20049;-79
2021/08/27 08:07:31;;;;;;;25.15;15.57;;;;;;;23.46;99.49;92740.66;5069394;28;20044;-79
2021/08/27 08:09:58;;;;;;;34.47;16.60;;;;;;;23.44;99.20;92769.00;5069307;28;20048;-78
2021/08/27 08:12:26;;;;;;;28.52;16.05;;;;;;;23.91;97.97;92757.31;5069464;28;20052;-79
2021/08/27 08:14:53;;;;;;;25.60;15.18;;;;;;;24.11;99.75;92755.22;5069100;28;20068;-78
2021/08/27 08:17:20;;;;;;;25.40;14.25;;;;;;;23.97;95.83;92756.09;5069106;28;20067;-79
2021/08/27 08:19:46;;;;;;;18.75;12.05;;;;;;;24.45;94.67;92737.97;5069366;28;20052;-78
2021/08/27 08:22:13;;;;;;;15.10;10.02;;;;;;;25.02;92.10;92746.00;5069532;28;20048;-78
2021/08/27 08:24:40;;;;;;;19.60;8.90;;;;;;;25.38;89.25;92751.94;5069290;28;20051;-78
2021/08/27 08:27:07;;;;;;;13.02;6.55;;;;;;;25.72;85.66;92760.81;5068871;28;20052;-78
2021/08/27 08:29:36;;;;;;;14.30;6.80;;;;;;;25.96;84.68;92762.13;5069298;28;20048;-78
2021/08/27 08:32:05;;;;;;;11.88;6.45;;;;;;;26.14;84.04;92760.94;5069210;28;20051;-78
2021/08/27 08:34:32;;;;;;;12.20;6.50;;;;;;;26.32;81.53;92755.59;5069388;28;20045;-78
2021/08/27 08:36:59;;;;;;;9.65;5.95;;;;;;;26.32;80.54;92742.41;5069757;28;20049;-78
2021/08/27 08:39:25;;;;;;;13.43;6.03;;;;;;;26.31;80.30;92746.16;5069187;28;20072;-78
2021/08/27 08:41:52;;;;;;;10.73;6.10;;;;;;;26.57;80.43;92753.09;5069255;28;20045;-78
2021/08/27 08:44:19;;;;;;;9.15;6.15;;;;;;;26.36;79.61;92724.91;5068788;28;20078;-77
2021/08/27 08:46:48;;;;;;;6.32;4.95;;;;;;;26.66;79.24;92756.44;5068841;28;20840;-78
2021/08/27 08:49:19;;;;;;;13.00;5.90;;;;;;;26.83;78.25;92759.25;5069039;28;20056;-78
2021/08/27 08:51:50;;;;;;;12.38;5.75;;;;;;;26.77;75.78;92763.94;5069084;28;20045;-78
2021/08/27 08:54:19;;;;;;;6.78;5.00;;;;;;;26.59;76.21;92731.69;5069043;28;20045;-78
2021/08/27 08:56:46;;;;;;;9.73;5.13;;;;;;;26.79;76.44;92759.09;5069025;28;20139;-78
2021/08/27 08:59:14;;;;;;;11.90;5.60;;;;;;;26.91;76.54;92764.44;5068898;28;20443;-78
2021/08/27 09:01:41;;;;;;;11.07;5.75;;;;;;;27.00;76.24;92769.66;5068617;28;20055;-78
2021/08/27 09:04:09;;;;;;;10.55;5.18;;;;;;;26.93;74.21;92762.28;5068888;28;20044;-78
2021/08/27 09:06:36;;;;;;;17.63;5.85;;;;;;;27.03;74.17;92755.06;5068632;28;20052;-78
2021/08/27 09:09:03;;;;;;;18.45;6.93;;;;;;;27.00;74.08;92751.22;5068791;28;20049;-77
2021/08/27 09:11:31;;;;;;;10.65;5.13;;;;;;;26.95;74.51;92756.69;5068778;28;20054;-77
2021/08/27 09:13:59;;;;;;;9.60;5.07;;;;;;;27.06;73.29;92747.28;5068647;28;20048;-77
2021/08/27 09:16:28;;;;;;;10.30;5.35;;;;;;;27.28;72.54;92740.09;5068597;28;20810;-77
2021/08/27 09:18:56;;;;;;;14.02;5.88;;;;;;;27.29;73.42;92732.94;5068557;28;20050;-78
2021/08/27 09:21:29;;;;;;;10.48;5.60;;;;;;;27.58;72.86;92741.78;5070261;28;20053;-77
2021/08/27 09:24:24;;;;;;;14.73;5.47;;;;;;;27.61;70.37;92738.50;5072306;28;20045;-78
2021/08/27 09:26:55;;;;;;;11.40;5.43;;;;;;;27.64;70.58;92740.50;5015431;28;20066;-78
2021/08/27 09:29:36;;;;;;;8.30;5.28;;;;;;;27.65;70.87;92722.78;5072028;28;20078;-78
2021/08/27 09:32:17;;;;;;;10.98;5.53;;;;;;;27.81;67.64;92736.88;5072407;28;20044;-77
2021/08/27 09:34:45;;;;;;;9.70;5.55;;;;;;;27.82;70.56;92746.31;5072379;28;20389;-78
2021/08/27 09:37:13;;;;;;;10.80;5.88;;;;;;;27.83;68.91;92742.59;5072156;28;20190;-78
2021/08/27 09:39:40;;;;;;;10.10;5.97;;;;;;;27.87;68.71;92743.47;5072215;28;20083;-78
2021/08/27 09:42:07;;;;;;;10.93;6.30;;;;;;;27.70;70.40;92731.25;5072138;28;20416;-78
2021/08/27 09:44:34;;;;;;;11.57;6.88;;;;;;;27.64;69.02;92732.59;5071877;28;20078;-77
2021/08/27 09:47:07;;;;;;;10.60;6.95;;;;;;;27.61;69.85;92731.38;5072081;28;20049;-78
2021/08/27 09:49:36;;;;;;;12.52;6.55;;;;;;;27.72;68.74;92728.31;5071589;28;20080;-77
2021/08/27 09:52:04;;;;;;;12.85;7.15;;;;;;;27.79;69.97;92725.09;5071686;28;20523;-77
2021/08/27 09:54:34;;;;;;;12.18;7.55;;;;;;;27.72;69.70;92713.22;5071667;28;20060;-78
2021/08/27 09:57:02;;;;;;;10.30;6.45;;;;;;;27.77;66.64;92714.88;5071697;28;20087;-77
2021/08/27 09:59:36;;;;;;;14.95;7.70;;;;;;;27.81;67.32;92710.47;5071765;28;20048;-78
2021/08/27 10:02:05;;;;;;;19.10;7.75;;;;;;;27.63;67.99;92693.34;5071691;28;20044;-78
2021/08/27 10:04:33;;;;;;;12.98;7.70;;;;;;;27.73;67.25;92706.84;5072124;28;20048;-78
2021/08/27 10:07:00;;;;;;;8.98;6.28;;;;;;;27.73;64.29;92680.47;5072431;28;20048;-77
2021/08/27 10:12:19;;;;;;;14.75;6.82;;;;;;;28.03;66.43;92711.13;5101527;27;1373307;-78
2021/08/27 10:14:49;;;;;;;9.82;5.20;;;;;;;27.88;63.61;92678.25;5127574;28;20070;-79
2021/08/27 10:17:15;;;;;;;10.90;5.63;;;;;;;28.00;63.39;92694.06;5127426;28;20047;-78
2021/08/27 10:19:42;;;;;;;8.20;5.28;;;;;;;28.04;62.03;92699.44;5127438;28;20039;-78
2021/08/27 10:22:09;;;;;;;10.05;5.65;;;;;;;28.12;60.69;92701.22;5127716;28;20054;-79
2021/08/27 10:24:36;;;;;;;15.38;5.20;;;;;;;28.22;60.25;92697.34;5127242;28;20046;-79
2021/08/27 10:27:07;;;;;;;14.85;6.25;;;;;;;28.32;61.37;92690.84;5127116;28;20051;-78
2021/08/27 10:29:36;;;;;;;13.63;4.50;;;;;;;28.47;59.22;92692.00;5127114;28;20433;-78
2021/08/27 10:32:04;;;;;;;8.23;4.15;;;;;;;28.50;58.39;92677.34;5127034;28;20050;-78
2021/08/27 10:34:41;;;;;;;7.70;4.40;;;;;;;28.41;58.07;92665.06;5114434;28;20895;-78
2021/08/27 10:37:08;;;;;;;8.95;3.78;;;;;;;28.64;58.53;92688.31;5102344;28;20056;-79
2021/08/27 10:39:40;;;;;;;8.40;3.65;;;;;;;28.72;54.57;92675.28;5106442;28;20052;-79
2021/08/27 10:42:09;;;;;;;6.70;3.85;;;;;;;28.88;55.21;92680.66;5106589;28;20406;-79
2021/08/27 10:44:50;;;;;;;6.80;4.53;;;;;;;28.79;56.99;92676.25;5106482;28;20055;-78
2021/08/27 10:47:18;;;;;;;6.50;4.15;;;;;;;28.84;57.20;92669.97;5104669;28;20051;-79
2021/08/27 10:49:56;;;;;;;11.27;5.20;;;;;;;28.84;55.89;92663.91;5104034;28;20388;-79
2021/08/27 10:52:24;;;;;;;9.48;5.00;;;;;;;28.89;57.08;92653.09;5106171;28;20047;-79
2021/08/27 10:55:07;;;;;;;9.02;4.38;;;;;;;29.02;56.23;92657.22;5106505;28;20436;-79
2021/08/27 10:57:45;;;;;;;11.73;4.38;;;;;;;29.13;54.12;92668.06;5103826;28;20047;-78
2021/08/27 11:00:14;;;;;;;10.00;4.70;;;;;;;29.28;55.74;92663.09;5106612;28;20052;-78
2021/08/27 11:02:54;;;;;;;9.70;4.22;;;;;;;29.43;54.81;92654.41;5106008;28;20052;-78
2021/08/27 11:05:35;;;;;;;5.65;3.28;;;;;;;29.47;52.63;92671.13;5105937;28;20085;-79
2021/08/27 11:08:03;;;;;;;7.13;2.83;;;;;;;29.37;47.93;92649.69;5085846;28;20051;-79
2021/08/27 11:10:30;;;;;;;11.07;3.25;;;;;;;29.39;46.76;92656.19;5085436;28;20056;-78
2021/08/27 11:13:01;;;;;;;7.10;3.42;;;;;;;29.67;48.18;92673.84;5085538;28;20410;-78
2021/08/27 11:15:31;;;;;;;7.57;3.20;;;;;;;29.68;48.39;92678.06;5085543;28;20056;-79
2021/08/27 11:18:19;;;;;;;7.70;3.53;;;;;;;29.79;49.35;92675.66;5085333;28;20044;-79
2021/08/27 11:20:47;;;;;;;6.40;3.47;;;;;;;29.83;47.97;92675.72;5085266;28;20171;-78
2021/08/27 11:23:15;;;;;;;9.20;3.35;;;;;;;29.82;47.25;92667.03;5074473;28;20176;-79
2021/08/27 11:25:43;;;;;;;6.88;3.35;;;;;;;29.95;47.31;92669.56;5071820;28;20045;-79
2021/08/27 11:28:20;;;;;;;11.32;4.18;;;;;;;30.06;46.97;92675.06;5071461;28;20048;-79
2021/08/27 11:31:02;;;;;;;12.90;4.40;;;;;;;30.18;47.00;92672.34;5071578;28;20059;-79
2021/08/27 11:34:01;;;;;;;8.50;4.40;;;;;;;30.41;47.12;92674.31;5075285;28;20048;-79
2021/08/27 11:36:37;;;;;;;7.90;3.38;;;;;;;30.38;45.60;92672.34;5090350;28;20048;-80
2021/08/27 11:39:08;;;;;;;7.45;2.90;;;;;;;30.39;42.42;92660.63;5091423;28;20059;-80
2021/08/27 11:41:37;;;;;;;7.45;3.00;;;;;;;30.63;41.07;92674.69;5091987;28;20048;-80
2021/08/27 11:44:07;;;;;;;8.85;2.80;;;;;;;30.66;42.13;92681.97;5091716;28;20048;-80
2021/08/27 11:46:37;;;;;;;7.80;3.38;;;;;;;30.60;40.93;92686.00;5091186;28;20392;-80
2021/08/27 11:49:11;;;;;;;8.05;3.42;;;;;;;30.53;42.60;92684.75;5091683;28;20055;-81
2021/08/27 11:51:45;;;;;;;7.10;3.30;;;;;;;30.67;44.00;92673.66;5087513;28;20446;-80
2021/08/27 11:54:20;;;;;;;6.53;2.70;;;;;;;30.69;40.98;92680.50;5071586;28;20044;-80
2021/08/27 11:56:51;;;;;;;6.63;2.85;;;;;;;30.60;42.17;92676.19;5071308;28;20158;-81
2021/08/27 11:59:25;;;;;;;8.93;3.58;;;;;;;30.68;40.72;92679.72;5071470;28;20049;-80
2021/08/27 12:01:54;;;;;;;7.13;3.43;;;;;;;30.70;40.92;92679.41;5071418;28;20044;-80
2021/08/27 12:04:29;;;;;;;17.38;3.78;;;;;;;30.74;42.38;92681.03;5071079;28;20511;-80
2021/08/27 12:07:10;;;;;;;5.90;3.08;;;;;;;30.62;42.44;92651.97;5071237;28;20071;-79
2021/08/27 12:09:37;;;;;;;5.30;3.30;;;;;;;30.83;42.99;92672.84;5088912;28;20052;-80
2021/08/27 12:12:05;;;;;;;4.78;2.65;;;;;;;30.86;43.20;92674.78;5091440;28;20052;-79
2021/08/27 12:14:48;;;;;;;10.50;3.80;;;;;;;31.05;41.96;92678.53;5091566;28;20497;-79
2021/08/27 12:17:23;;;;;;;8.73;2.97;;;;;;;31.11;44.09;92682.41;5091335;28;20447;-80
2021/08/27 12:19:50;;;;;;;6.70;3.13;;;;;;;31.03;40.79;92678.09;5091082;28;20040;-80
2021/08/27 12:22:19;;;;;;;6.55;2.85;;;;;;;30.97;40.68;92656.41;5091476;28;20395;-80
2021/08/27 12:24:46;;;;;;;7.32;3.17;;;;;;;31.09;40.51;92663.41;5091124;28;20125;-80
2021/08/27 12:27:14;;;;;;;9.30;3.35;;;;;;;30.86;41.25;92650.16;5091251;28;20051;-79
2021/08/27 12:29:41;;;;;;;9.38;2.97;;;;;;;31.02;41.91;92665.97;5090896;28;20464;-79
2021/08/27 12:32:14;;;;;;;8.07;3.85;;;;;;;31.09;41.58;92671.38;5090306;28;20050;-79
2021/08/27 12:34:44;;;;;;;8.75;3.70;;;;;;;30.92;40.80;92648.75;5087107;28;20048;-80